world map with TOS marked

TOS - Airport

This information may not be accurate or current and is not valid for navigation or flight planning. No warranty of fitness for any purpose is made or implied.

flag of Norway

Donate via PayPal

Additional information is available on the NEW Great Circle Mapper

Location
City:  Tromsų, Norway
Name:Langnes
ICAO / IATA:ENTC / TOS

Details
Type:Airport (Aerodrome, Airfield)
Use:Public/Civil
Latitude:69°41'00"N (69.683333)
Longitude:18°55'08"E (18.918919)
Datum:WGS 1984
Elevation:31 ft (9 m)
Runways:1
Longest:7848 × 148 ft (2392 × 45 m)

Time
Timezone:UTC+1 (DST+4)
Local Time:

Weather
METAR:ENTC  041420Z 18009KT CAVOK M07/M15 Q1015 NOSIG RMK WIND 2600FT 19012KT
TAF:ENTC  041100Z 0412/0512 19005KT CAVOK

Related Locations
Nearby:
Farthest:NZTB: 11631 mi / 18718 km
Terra Nova Bay [Mario Zucchelli Station], AQ

Find:

   beyond  
but within

Other Information
Maps:
Sources:

  


 


Great Circle Mapper   Great Circle Mapper
Great Circle Mapper FAQ   Great Circle Mapper FAQ
  Karl's Home Page
KLS²   KLS² Home
   GC on Facebook
Airlines of the World   Airlines of the World
Donate via PayPal


Copyright © 2004-2019, Karl L. Swartz. All rights reserved.
All trademarks mentioned herein belong to their respective owners.

Please see credits for attribution and copyright information.

Karl Swartz <karl@kls2.com>
  Powered by FreeBSD
Valid HTML 4.01!
Labeled with ICRA
hCard Microformat
Geo Microformat